Terminal Aerodrome Forecast
Issued by NWS

Home | Current Version | Previous Version | Text Only | Print | Product List | Glossary On
Versions: 1 2 3 4 5 6 7 8 9 10 11 12
000
FTUS42 KGSP 220534
TAFAND
TAF
KAND 220534Z 2206/2306 15003KT P6SM FEW250
      TEMPO 2210/2213 4SM BR FEW003
     FM221800 09003KT P6SM BKN018 BKN200 PROB30 2221/2223 2SM -SHRA
      OVC008
     FM222300 14007KT 4SM -SHRA OVC008
     FM230200 17010KT 2SM -SHRA BR OVC003 PROB30 2303/2306 1SM TS BR
      OVC003CB=

USA.gov is the U.S. government's official web portal to all federal, state and local government web resources and services.